Atlas — SV6729 — position and weather

sailwx.info

Track history (hours):
 
Tides and Currents Weather Stations Pressure Air Temp Water Temp Dewpoint Dewpoint Depression Visibility Wind Speed Wind Dir Waves Ship Positions

Atlas

Last reported at 2016-Jun-26 23:32 UTC. Time now 2016-Jun-27 00:35 UTC.
Position N 37°57' E 023°35'.

Length 29 m; draft 5 m.

Type: Tug. MMSI: 239611000.

Date/timePositionNaut miles runAvg speedWind from/ knotsBaromVisibWave heightAir tempDewpointWater temp
2016-Jun-26 23:32N 37°57' E 023°35'0 0.0
2016-Jun-26 22:32N 37°57' E 023°35'0 0.0
2016-Jun-26 21:32N 37°57' E 023°35'0 0.0
2016-Jun-26 20:32N 37°57' E 023°35'0 0.0
2016-Jun-26 19:33N 37°57' E 023°35'0 0.0
2016-Jun-26 18:29N 37°57' E 023°35'1 0.8
2016-Jun-26 17:34N 37°57' E 023°36'0 0.4
2016-Jun-26 16:33N 37°57' E 023°36'0 0.3
2016-Jun-26 15:31N 37°57' E 023°37'0 0.0
2016-Jun-26 14:31N 37°57' E 023°37'1 0.6
2016-Jun-26 13:32N 37°57' E 023°36'1 0.8
2016-Jun-26 12:32N 37°57' E 023°35'0 0.4
2016-Jun-26 11:33N 37°57' E 023°35'0 0.1
2016-Jun-26 10:33N 37°57' E 023°35'1 1.3
2016-Jun-26 09:32N 37°57' E 023°37'0 0.0
2016-Jun-26 08:33N 37°57' E 023°37'0 0.0
2016-Jun-26 07:14N 37°57' E 023°37'5 6.9
2016-Jun-26 06:33N 38°01' E 023°32'1 1.1
2016-Jun-26 05:33N 38°02' E 023°32'6 5.5
2016-Jun-26 04:34N 37°57' E 023°36'0 0.1
2016-Jun-26 03:32N 37°57' E 023°37'  
2016-Jun-23 17:16N 37°57' E 023°37'1 0.9
2016-Jun-23 16:32N 37°57' E 023°36'1 0.6
2016-Jun-23 15:26N 37°57' E 023°37'0 0.0
2016-Jun-23 14:31N 37°57' E 023°37'0 0.0
2016-Jun-23 13:31N 37°57' E 023°37'0 0.0
2016-Jun-23 12:27N 37°57' E 023°37'1 1.5
2016-Jun-23 11:33N 37°56' E 023°38'0 0.3
2016-Jun-23 10:32N 37°57' E 023°38'0 0.0
2016-Jun-23 09:28N 37°57' E 023°38'0 0.4
2016-Jun-23 08:33N 37°56' E 023°37'1 0.8
2016-Jun-23 07:33N 37°56' E 023°38'3 1.2
2016-Jun-23 05:25N 37°57' E 023°35'0 0.3
2016-Jun-23 04:33N 37°57' E 023°35'0 0.4
2016-Jun-23 03:32N 37°57' E 023°36'1 0.0
2016-Jun-22 10:30N 37°57' E 023°37'0 0.0
2016-Jun-22 09:32N 37°57' E 023°37'0 0.0
2016-Jun-22 08:28N 37°57' E 023°37'0 0.0
2016-Jun-22 07:30N 37°57' E 023°37'4 4.1
2016-Jun-22 06:33N 38°01' E 023°34'1 1.5
2016-Jun-22 05:33N 38°01' E 023°32'2 1.8
2016-Jun-22 04:31N 38°02' E 023°31'0 0.0
2016-Jun-22 03:33N 38°02' E 023°31'0 0.0
2016-Jun-22 02:33N 38°02' E 023°31'0 0.0
2016-Jun-22 01:32N 38°02' E 023°31'0 0.0
2016-Jun-22 00:31N 38°02' E 023°31'0 0.0
2016-Jun-21 23:31N 38°02' E 023°31'0 0.0
2016-Jun-21 22:33N 38°02' E 023°31'0 0.0
2016-Jun-21 21:32N 38°02' E 023°31'0 0.0
2016-Jun-21 20:32N 38°02' E 023°31'0 0.0
2016-Jun-21 19:32N 38°02' E 023°31'0 0.0
2016-Jun-21 18:29N 38°02' E 023°31'0 0.0
2016-Jun-21 17:31N 38°02' E 023°31'0 0.0
2016-Jun-21 16:31N 38°02' E 023°31'0 0.0
2016-Jun-21 15:31N 38°02' E 023°31'0 0.0
2016-Jun-21 14:33N 38°02' E 023°31'0 0.0
2016-Jun-21 13:33N 38°02' E 023°31'0 0.0
2016-Jun-21 12:32N 38°02' E 023°31'0 0.0
2016-Jun-21 11:31N 38°02' E 023°31'0 0.0
2016-Jun-21 10:31N 38°02' E 023°31'0 0.0
2016-Jun-21 09:33N 38°02' E 023°31'0 0.0
2016-Jun-21 08:33N 38°02' E 023°31'0 0.0
2016-Jun-21 07:28N 38°02' E 023°31'0 0.0
2016-Jun-21 05:33N 38°02' E 023°31'0 0.0
2016-Jun-21 04:32N 38°02' E 023°31'0 0.0
2016-Jun-21 03:27N 38°02' E 023°31'0 0.0
2016-Jun-21 02:30N 38°02' E 023°31'0 0.0
2016-Jun-21 01:32N 38°02' E 023°31'0 0.0
2016-Jun-21 00:32N 38°02' E 023°31'0 0.0
2016-Jun-20 23:27N 38°02' E 023°31'0 0.0
2016-Jun-20 22:32N 38°02' E 023°31'0 0.0
2016-Jun-20 21:32N 38°02' E 023°31'0 0.0
2016-Jun-20 20:32N 38°02' E 023°31'0 0.0
2016-Jun-20 19:31N 38°02' E 023°31'0 0.2
2016-Jun-20 18:31N 38°02' E 023°31'0 0.0
2016-Jun-20 17:32N 38°02' E 023°31'0 0.0
2016-Jun-20 16:32N 38°02' E 023°31'0 0.0
2016-Jun-20 15:33N 38°02' E 023°31'0 0.0
2016-Jun-20 14:33N 38°02' E 023°31'0 0.2
2016-Jun-20 13:33N 38°02' E 023°31'0 0.3
2016-Jun-20 12:27N 38°02' E 023°31'0 0.4
2016-Jun-20 11:33N 38°02' E 023°31'6 6.3
2016-Jun-20 10:33N 37°57' E 023°36'2 0.9
2016-Jun-20 08:33N 37°57' E 023°33'4 4.3
2016-Jun-20 07:32N 38°01' E 023°36'4 4.2
2016-Jun-20 06:33N 37°57' E 023°36'0 0.4
2016-Jun-20 05:31N 37°57' E 023°37'1 1.0
2016-Jun-20 04:32N 37°57' E 023°35'0 0.4
2016-Jun-20 03:30N 37°57' E 023°36'1 0.0
2016-Jun-19 14:13N 37°57' E 023°37'0 0.0
2016-Jun-19 13:31N 37°57' E 023°37'1 0.6
2016-Jun-19 12:29N 37°57' E 023°36'1 0.9
2016-Jun-19 11:32N 37°57' E 023°37'1 0.5
2016-Jun-19 10:29N 37°57' E 023°37'1 0.6
2016-Jun-19 09:33N 37°57' E 023°36'1 0.5
2016-Jun-19 08:29N 37°57' E 023°37'1 0.7
2016-Jun-19 07:31N 37°57' E 023°36'0 0.1
2016-Jun-19 06:31N 37°57' E 023°36'0 0.1
2016-Jun-19 05:31N 37°57' E 023°36'1 0.7
2016-Jun-19 04:29N 37°57' E 023°36'1 0.7
2016-Jun-19 03:30N 37°57' E 023°37'0 0.0
2016-Jun-17 10:32N 37°57' E 023°37'0 0.0
2016-Jun-17 09:29N 37°57' E 023°37'0 0.0
2016-Jun-17 08:32N 37°57' E 023°37'0 0.0
2016-Jun-17 07:29N 37°57' E 023°37'0 0.0
2016-Jun-17 06:33N 37°57' E 023°37'1 0.8
2016-Jun-17 05:33N 37°57' E 023°36'1 0.6
2016-Jun-17 04:31N 37°56' E 023°36'1 1.4
2016-Jun-17 03:32N 37°57' E 023°35'  
Track history (hours):
 
Tides and Currents Weather Stations Pressure Air Temp Water Temp Dewpoint Dewpoint Depression Visibility Wind Speed Wind Dir Waves Ship Positions

Atlas

Last reported at 2016-Jun-26 23:32 UTC. Time now 2016-Jun-27 00:35 UTC.
Position N 37°57' E 023°35'.

Length 29 m; draft 5 m.

Type: Tug. MMSI: 239611000.

Date/timePositionNaut miles runAvg speedWind from/ knotsBaromVisibWave heightAir tempDewpointWater temp
2016-Jun-26 23:32N 37°57' E 023°35'0 0.0
2016-Jun-26 22:32N 37°57' E 023°35'0 0.0
2016-Jun-26 21:32N 37°57' E 023°35'0 0.0
2016-Jun-26 20:32N 37°57' E 023°35'0 0.0
2016-Jun-26 19:33N 37°57' E 023°35'0 0.0
2016-Jun-26 18:29N 37°57' E 023°35'1 0.8
2016-Jun-26 17:34N 37°57' E 023°36'0 0.4
2016-Jun-26 16:33N 37°57' E 023°36'0 0.3
2016-Jun-26 15:31N 37°57' E 023°37'0 0.0
2016-Jun-26 14:31N 37°57' E 023°37'1 0.6
2016-Jun-26 13:32N 37°57' E 023°36'1 0.8
2016-Jun-26 12:32N 37°57' E 023°35'0 0.4
2016-Jun-26 11:33N 37°57' E 023°35'0 0.1
2016-Jun-26 10:33N 37°57' E 023°35'1 1.3
2016-Jun-26 09:32N 37°57' E 023°37'0 0.0
2016-Jun-26 08:33N 37°57' E 023°37'0 0.0
2016-Jun-26 07:14N 37°57' E 023°37'5 6.9
2016-Jun-26 06:33N 38°01' E 023°32'1 1.1
2016-Jun-26 05:33N 38°02' E 023°32'6 5.5
2016-Jun-26 04:34N 37°57' E 023°36'0 0.1
2016-Jun-26 03:32N 37°57' E 023°37'  
2016-Jun-23 17:16N 37°57' E 023°37'1 0.9
2016-Jun-23 16:32N 37°57' E 023°36'1 0.6
2016-Jun-23 15:26N 37°57' E 023°37'0 0.0
2016-Jun-23 14:31N 37°57' E 023°37'0 0.0
2016-Jun-23 13:31N 37°57' E 023°37'0 0.0
2016-Jun-23 12:27N 37°57' E 023°37'1 1.5
2016-Jun-23 11:33N 37°56' E 023°38'0 0.3
2016-Jun-23 10:32N 37°57' E 023°38'0 0.0
2016-Jun-23 09:28N 37°57' E 023°38'0 0.4
2016-Jun-23 08:33N 37°56' E 023°37'1 0.8
2016-Jun-23 07:33N 37°56' E 023°38'3 1.2
2016-Jun-23 05:25N 37°57' E 023°35'0 0.3
2016-Jun-23 04:33N 37°57' E 023°35'0 0.4
2016-Jun-23 03:32N 37°57' E 023°36'1 0.0
2016-Jun-22 10:30N 37°57' E 023°37'0 0.0
2016-Jun-22 09:32N 37°57' E 023°37'0 0.0
2016-Jun-22 08:28N 37°57' E 023°37'0 0.0
2016-Jun-22 07:30N 37°57' E 023°37'4 4.1
2016-Jun-22 06:33N 38°01' E 023°34'1 1.5
2016-Jun-22 05:33N 38°01' E 023°32'2 1.8
2016-Jun-22 04:31N 38°02' E 023°31'0 0.0
2016-Jun-22 03:33N 38°02' E 023°31'0 0.0
2016-Jun-22 02:33N 38°02' E 023°31'0 0.0
2016-Jun-22 01:32N 38°02' E 023°31'0 0.0
2016-Jun-22 00:31N 38°02' E 023°31'0 0.0
2016-Jun-21 23:31N 38°02' E 023°31'0 0.0
2016-Jun-21 22:33N 38°02' E 023°31'0 0.0
2016-Jun-21 21:32N 38°02' E 023°31'0 0.0
2016-Jun-21 20:32N 38°02' E 023°31'0 0.0
2016-Jun-21 19:32N 38°02' E 023°31'0 0.0
2016-Jun-21 18:29N 38°02' E 023°31'0 0.0
2016-Jun-21 17:31N 38°02' E 023°31'0 0.0
2016-Jun-21 16:31N 38°02' E 023°31'0 0.0
2016-Jun-21 15:31N 38°02' E 023°31'0 0.0
2016-Jun-21 14:33N 38°02' E 023°31'0 0.0
2016-Jun-21 13:33N 38°02' E 023°31'0 0.0
2016-Jun-21 12:32N 38°02' E 023°31'0 0.0
2016-Jun-21 11:31N 38°02' E 023°31'0 0.0
2016-Jun-21 10:31N 38°02' E 023°31'0 0.0
2016-Jun-21 09:33N 38°02' E 023°31'0 0.0
2016-Jun-21 08:33N 38°02' E 023°31'0 0.0
2016-Jun-21 07:28N 38°02' E 023°31'0 0.0
2016-Jun-21 05:33N 38°02' E 023°31'0 0.0
2016-Jun-21 04:32N 38°02' E 023°31'0 0.0
2016-Jun-21 03:27N 38°02' E 023°31'0 0.0
2016-Jun-21 02:30N 38°02' E 023°31'0 0.0
2016-Jun-21 01:32N 38°02' E 023°31'0 0.0
2016-Jun-21 00:32N 38°02' E 023°31'0 0.0
2016-Jun-20 23:27N 38°02' E 023°31'0 0.0
2016-Jun-20 22:32N 38°02' E 023°31'0 0.0
2016-Jun-20 21:32N 38°02' E 023°31'0 0.0
2016-Jun-20 20:32N 38°02' E 023°31'0 0.0
2016-Jun-20 19:31N 38°02' E 023°31'0 0.2
2016-Jun-20 18:31N 38°02' E 023°31'0 0.0
2016-Jun-20 17:32N 38°02' E 023°31'0 0.0
2016-Jun-20 16:32N 38°02' E 023°31'0 0.0
2016-Jun-20 15:33N 38°02' E 023°31'0 0.0
2016-Jun-20 14:33N 38°02' E 023°31'0 0.2
2016-Jun-20 13:33N 38°02' E 023°31'0 0.3
2016-Jun-20 12:27N 38°02' E 023°31'0 0.4
2016-Jun-20 11:33N 38°02' E 023°31'6 6.3
2016-Jun-20 10:33N 37°57' E 023°36'2 0.9
2016-Jun-20 08:33N 37°57' E 023°33'4 4.3
2016-Jun-20 07:32N 38°01' E 023°36'4 4.2
2016-Jun-20 06:33N 37°57' E 023°36'0 0.4
2016-Jun-20 05:31N 37°57' E 023°37'1 1.0
2016-Jun-20 04:32N 37°57' E 023°35'0 0.4
2016-Jun-20 03:30N 37°57' E 023°36'1 0.0
2016-Jun-19 14:13N 37°57' E 023°37'0 0.0
2016-Jun-19 13:31N 37°57' E 023°37'1 0.6
2016-Jun-19 12:29N 37°57' E 023°36'1 0.9
2016-Jun-19 11:32N 37°57' E 023°37'1 0.5
2016-Jun-19 10:29N 37°57' E 023°37'1 0.6
2016-Jun-19 09:33N 37°57' E 023°36'1 0.5
2016-Jun-19 08:29N 37°57' E 023°37'1 0.7
2016-Jun-19 07:31N 37°57' E 023°36'0 0.1
2016-Jun-19 06:31N 37°57' E 023°36'0 0.1
2016-Jun-19 05:31N 37°57' E 023°36'1 0.7
2016-Jun-19 04:29N 37°57' E 023°36'1 0.7
2016-Jun-19 03:30N 37°57' E 023°37'0 0.0
2016-Jun-17 10:32N 37°57' E 023°37'0 0.0
2016-Jun-17 09:29N 37°57' E 023°37'0 0.0
2016-Jun-17 08:32N 37°57' E 023°37'0 0.0
2016-Jun-17 07:29N 37°57' E 023°37'0 0.0
2016-Jun-17 06:33N 37°57' E 023°37'1 0.8
2016-Jun-17 05:33N 37°57' E 023°36'1 0.6
2016-Jun-17 04:31N 37°56' E 023°36'1 1.4
2016-Jun-17 03:32N 37°57' E 023°35'  

Dump ship's entire track history